createdAt,value
2019-02-24T00:01:21.181Z,13.47
2019-02-24T00:03:50.460Z,13.43
2019-02-24T00:06:19.643Z,14.13
2019-02-24T00:08:49.099Z,14.07
2019-02-24T00:11:18.069Z,12.97
2019-02-24T00:13:47.088Z,13.03
2019-02-24T00:16:16.045Z,13.60
2019-02-24T00:18:45.057Z,13.77
2019-02-24T00:21:14.037Z,12.77
2019-02-24T00:23:43.092Z,13.13
2019-02-24T00:26:12.045Z,13.77
2019-02-24T00:28:41.029Z,13.43
2019-02-24T00:31:10.059Z,13.87
2019-02-24T00:33:39.233Z,16.13
2019-02-24T00:36:08.227Z,15.90
2019-02-24T00:38:37.375Z,15.13
2019-02-24T00:41:06.497Z,13.27
2019-02-24T00:43:35.666Z,13.73
2019-02-24T00:46:04.665Z,13.87
2019-02-24T00:48:33.740Z,14.20
2019-02-24T00:51:02.757Z,16.50
2019-02-24T00:53:31.687Z,14.40
2019-02-24T00:56:00.617Z,13.23
2019-02-24T00:58:29.585Z,12.27
2019-02-24T01:00:58.603Z,13.80
2019-02-24T01:03:27.577Z,13.13
2019-02-24T01:05:56.521Z,12.30
2019-02-24T01:08:25.431Z,12.20
2019-02-24T01:10:54.441Z,12.50
2019-02-24T01:13:23.375Z,12.07
2019-02-24T01:15:52.335Z,12.13
2019-02-24T01:18:21.241Z,12.17
2019-02-24T01:20:50.213Z,12.47
2019-02-24T01:23:19.253Z,12.70
2019-02-24T01:25:54.741Z,12.37
2019-02-24T01:28:25.528Z,11.60
2019-02-24T01:30:52.749Z,10.90
2019-02-24T01:33:21.666Z,11.23
2019-02-24T01:35:50.663Z,11.33
2019-02-24T01:38:19.696Z,11.77
2019-02-24T01:40:48.647Z,12.97
2019-02-24T01:43:17.570Z,13.40
2019-02-24T01:45:46.568Z,12.90
2019-02-24T01:48:15.555Z,12.87
2019-02-24T01:50:44.603Z,12.23
2019-02-24T01:53:13.548Z,12.70
2019-02-24T01:55:42.557Z,13.73
2019-02-24T01:58:11.547Z,14.17
2019-02-24T02:00:40.862Z,14.20
2019-02-24T02:03:09.821Z,15.27
2019-02-24T02:05:38.781Z,14.97
2019-02-24T02:08:07.714Z,16.17
2019-02-24T02:10:36.764Z,14.27
2019-02-24T02:13:05.717Z,16.13
2019-02-24T02:15:34.703Z,15.60
2019-02-24T02:18:03.687Z,15.70
2019-02-24T02:20:32.689Z,14.70
2019-02-24T02:23:01.672Z,13.83
2019-02-24T02:25:30.625Z,14.37
2019-02-24T02:28:00.139Z,13.77
2019-02-24T02:30:29.345Z,13.00
2019-02-24T02:32:58.274Z,14.47
2019-02-24T02:35:27.252Z,13.10
2019-02-24T02:37:56.393Z,14.60
2019-02-24T02:40:25.435Z,15.03
2019-02-24T02:42:54.762Z,14.90
2019-02-24T02:45:23.782Z,14.17
2019-02-24T02:47:52.855Z,14.37
2019-02-24T02:50:21.837Z,13.87
2019-02-24T02:52:50.831Z,14.20
2019-02-24T02:55:20.844Z,14.00
2019-02-24T02:57:49.831Z,14.03
2019-02-24T03:00:27.571Z,14.43
2019-02-24T03:02:56.637Z,13.47
2019-02-24T03:05:25.813Z,14.27
2019-02-24T03:08:00.208Z,14.10
2019-02-24T03:10:29.253Z,13.83
2019-02-24T03:12:58.315Z,14.03
2019-02-24T03:15:27.319Z,14.00
2019-02-24T03:17:56.363Z,13.07
2019-02-24T03:20:25.357Z,13.37
2019-02-24T03:22:54.296Z,13.37
2019-02-24T03:25:23.326Z,12.67
2019-02-24T03:27:52.572Z,12.60
2019-02-24T03:30:21.699Z,13.20
2019-02-24T03:32:50.857Z,12.33
2019-02-24T03:35:20.099Z,13.07
2019-02-24T03:37:49.275Z,13.07
2019-02-24T03:40:18.295Z,12.37
2019-02-24T03:42:47.230Z,12.90
2019-02-24T03:45:16.162Z,11.40
2019-02-24T03:47:45.153Z,12.57
2019-02-24T03:50:14.184Z,12.00
2019-02-24T03:52:43.209Z,11.30
2019-02-24T03:55:12.174Z,12.20
2019-02-24T03:57:41.137Z,12.57
2019-02-24T04:00:10.147Z,11.73
2019-02-24T04:02:39.167Z,11.83
2019-02-24T04:05:08.131Z,11.50
2019-02-24T04:07:37.105Z,11.67
2019-02-24T04:10:06.612Z,11.43
2019-02-24T04:12:35.567Z,11.50
2019-02-24T04:15:04.981Z,11.60
2019-02-24T04:17:33.968Z,11.73
2019-02-24T04:20:02.930Z,11.13
2019-02-24T04:22:31.896Z,11.67
2019-02-24T04:25:00.966Z,11.53
2019-02-24T04:27:29.965Z,11.47
2019-02-24T04:29:58.999Z,11.37
2019-02-24T04:32:28.050Z,11.47
2019-02-24T04:34:56.991Z,11.97
2019-02-24T04:37:25.965Z,11.50
2019-02-24T04:39:54.903Z,12.00
2019-02-24T04:42:23.894Z,12.00
2019-02-24T04:44:52.921Z,11.23
2019-02-24T04:47:21.915Z,10.97
2019-02-24T04:49:51.150Z,10.50
2019-02-24T04:52:20.140Z,11.47
2019-02-24T04:54:49.113Z,11.00
2019-02-24T04:57:18.154Z,11.37
2019-02-24T04:59:47.287Z,11.53
2019-02-24T05:02:16.381Z,10.73
2019-02-24T05:04:45.285Z,11.67
2019-02-24T05:07:14.402Z,11.23
2019-02-24T05:09:43.403Z,12.00
2019-02-24T05:12:12.404Z,11.40
2019-02-24T05:14:41.385Z,12.00
2019-02-24T05:17:10.404Z,10.77
2019-02-24T05:19:39.310Z,11.37
2019-02-24T05:22:08.308Z,12.30
2019-02-24T05:24:37.198Z,11.67
2019-02-24T05:27:06.168Z,12.03
2019-02-24T05:29:44.816Z,11.67
2019-02-24T05:32:04.060Z,11.23
2019-02-24T05:34:33.073Z,11.57
2019-02-24T05:37:02.013Z,12.17
2019-02-24T05:39:31.001Z,12.53
2019-02-24T05:42:06.866Z,11.30
2019-02-24T05:44:35.866Z,11.43
2019-02-24T05:47:04.833Z,11.67
2019-02-24T05:49:33.771Z,11.73
2019-02-24T05:52:02.737Z,12.30
2019-02-24T05:54:31.664Z,12.03
2019-02-24T05:57:00.683Z,11.73
2019-02-24T05:59:29.665Z,11.50
2019-02-24T06:01:58.587Z,12.93
2019-02-24T06:04:27.569Z,11.93
2019-02-24T06:06:56.568Z,12.50
2019-02-24T06:09:25.551Z,12.00
2019-02-24T06:11:54.811Z,11.83
2019-02-24T06:14:23.803Z,12.67
2019-02-24T06:16:52.881Z,12.90
2019-02-24T06:19:22.082Z,12.43
2019-02-24T06:21:51.149Z,14.07
2019-02-24T06:24:20.113Z,13.60
2019-02-24T06:26:49.548Z,12.97
2019-02-24T06:29:18.507Z,12.10
2019-02-24T06:31:48.659Z,13.03
2019-02-24T06:34:17.759Z,13.13
2019-02-24T06:36:46.974Z,11.93
2019-02-24T06:39:16.000Z,12.30
2019-02-24T06:41:45.007Z,12.47
2019-02-24T06:44:20.249Z,13.03
2019-02-24T06:46:49.375Z,14.27
2019-02-24T06:49:18.593Z,13.33
2019-02-24T06:51:47.668Z,11.67
2019-02-24T06:54:16.699Z,13.23
2019-02-24T06:56:45.845Z,13.20
2019-02-24T06:59:15.315Z,12.93
2019-02-24T07:01:44.348Z,14.33
2019-02-24T07:04:13.545Z,13.93
2019-02-24T07:06:42.843Z,13.73
2019-02-24T07:09:12.497Z,12.80
2019-02-24T07:11:42.758Z,12.97
2019-02-24T07:14:11.848Z,12.67
2019-02-24T07:16:40.859Z,13.37
2019-02-24T07:19:10.006Z,12.67
2019-02-24T07:21:39.634Z,13.10
2019-02-24T07:24:08.633Z,12.40
2019-02-24T07:26:37.759Z,12.17
2019-02-24T07:29:06.949Z,12.40
2019-02-24T07:31:36.730Z,13.10
2019-02-24T07:34:06.007Z,12.80
2019-02-24T07:36:35.677Z,11.90
2019-02-24T07:39:05.531Z,12.57
2019-02-24T07:41:36.228Z,13.93
2019-02-24T07:44:06.614Z,15.93
2019-02-24T07:46:36.144Z,12.93
2019-02-24T07:49:05.174Z,13.87
2019-02-24T07:51:34.276Z,11.57
2019-02-24T07:54:04.457Z,12.00
2019-02-24T07:56:33.847Z,12.07
2019-02-24T07:59:03.645Z,12.17
2019-02-24T08:01:33.362Z,12.53
2019-02-24T08:04:02.419Z,12.50
2019-02-24T08:06:32.311Z,12.47
2019-02-24T08:09:01.396Z,13.17
2019-02-24T08:11:31.102Z,13.43
2019-02-24T08:14:00.384Z,12.93
2019-02-24T08:16:29.481Z,13.30
2019-02-24T08:18:58.767Z,12.60
2019-02-24T08:21:28.001Z,12.63
2019-02-24T08:23:57.617Z,12.30
2019-02-24T08:26:27.143Z,12.63
2019-02-24T08:28:56.176Z,12.97
2019-02-24T08:31:25.299Z,12.80
2019-02-24T08:33:55.665Z,12.50
2019-02-24T08:36:24.968Z,12.40
2019-02-24T08:38:54.307Z,12.57
2019-02-24T08:41:23.476Z,12.23
2019-02-24T08:43:52.701Z,12.37
2019-02-24T08:46:21.921Z,13.10
2019-02-24T08:48:50.967Z,12.00
2019-02-24T08:51:20.055Z,12.30
2019-02-24T08:53:50.065Z,12.30
2019-02-24T08:56:19.187Z,12.13
2019-02-24T08:58:48.604Z,12.00
2019-02-24T09:01:17.782Z,11.90
2019-02-24T09:03:48.057Z,11.73
2019-02-24T12:11:19.116Z,8.80
2019-02-24T12:13:48.093Z,6.47
2019-02-24T12:16:17.146Z,6.30
2019-02-24T12:18:46.330Z,6.28
2019-02-24T12:21:15.428Z,5.90
2019-02-24T12:23:44.510Z,5.37
2019-02-24T12:26:13.798Z,5.95
2019-02-24T12:28:42.903Z,7.37
2019-02-24T12:31:11.935Z,4.60
2019-02-24T12:33:40.961Z,4.33
2019-02-24T12:36:09.986Z,3.92
2019-02-24T12:38:39.121Z,5.28
2019-02-24T12:41:08.093Z,5.03
2019-02-24T12:43:37.104Z,5.20
2019-02-24T12:46:06.074Z,5.22
2019-02-24T12:48:35.076Z,4.83
2019-02-24T12:51:04.132Z,4.25
2019-02-24T12:53:33.208Z,4.53
2019-02-24T12:56:02.584Z,4.65
2019-02-24T12:58:31.834Z,4.95
2019-02-24T13:01:00.848Z,4.60
2019-02-24T13:03:29.896Z,4.70
2019-02-24T13:05:58.940Z,5.00
2019-02-24T13:08:27.908Z,5.28
2019-02-24T13:10:56.895Z,6.42
2019-02-24T13:13:26.045Z,6.45
2019-02-24T13:15:55.061Z,7.03
2019-02-24T13:18:24.094Z,5.95
2019-02-24T13:20:53.031Z,6.15
2019-02-24T13:23:21.983Z,8.18
2019-02-24T13:25:50.899Z,7.53
2019-02-24T13:28:19.969Z,6.17
2019-02-24T13:30:49.058Z,5.90
2019-02-24T13:33:18.148Z,6.22
2019-02-24T13:35:47.304Z,5.83
2019-02-24T13:38:16.372Z,8.13
2019-02-24T13:40:45.414Z,6.25
2019-02-24T13:43:14.478Z,5.75
2019-02-24T13:45:43.764Z,5.80
2019-02-24T13:48:12.782Z,21.42
2019-02-24T13:50:42.036Z,17.70
2019-02-24T13:53:11.171Z,14.98
2019-02-24T13:55:40.326Z,16.67
2019-02-24T13:58:09.728Z,18.85
2019-02-24T14:00:38.775Z,13.00
2019-02-24T14:03:07.806Z,5.28
2019-02-24T14:05:36.963Z,5.45
2019-02-24T14:08:06.039Z,5.60
2019-02-24T14:10:35.014Z,5.62
2019-02-24T14:13:05.353Z,5.70
2019-02-24T14:15:34.587Z,15.38
2019-02-24T14:18:03.720Z,6.12
2019-02-24T14:20:32.696Z,4.78
2019-02-24T14:23:01.677Z,5.72
2019-02-24T14:25:30.846Z,5.17
2019-02-24T14:27:59.909Z,5.17
2019-02-24T14:30:28.879Z,5.40
2019-02-24T14:32:57.824Z,4.47
2019-02-24T14:35:26.828Z,5.55
2019-02-24T14:37:55.789Z,5.90
2019-02-24T14:40:24.754Z,7.00
2019-02-24T14:42:53.800Z,4.80
2019-02-24T14:45:22.865Z,4.60
2019-02-24T14:47:51.919Z,4.73
2019-02-24T14:50:20.943Z,8.27
2019-02-24T14:52:50.036Z,5.40
2019-02-24T14:55:19.037Z,6.17
2019-02-24T14:57:48.070Z,4.83
2019-02-24T15:00:17.171Z,4.80
2019-02-24T15:02:46.388Z,5.00
2019-02-24T15:05:16.741Z,4.47
2019-02-24T15:07:44.297Z,5.17
2019-02-24T15:10:14.467Z,5.17
2019-02-24T15:12:43.575Z,5.37
2019-02-24T15:15:14.740Z,4.90
2019-02-24T15:17:43.751Z,4.40
2019-02-24T15:20:15.982Z,4.50
2019-02-24T15:22:45.016Z,7.07
2019-02-24T15:25:15.259Z,5.20
2019-02-24T15:27:44.504Z,5.50
2019-02-24T15:30:17.319Z,5.27
2019-02-24T15:32:51.605Z,5.00
2019-02-24T15:35:15.306Z,5.43
2019-02-24T15:37:44.601Z,5.27
2019-02-24T15:40:13.766Z,4.50
2019-02-24T15:42:42.891Z,4.67
2019-02-24T15:45:12.197Z,5.30
2019-02-24T15:47:41.257Z,5.40
2019-02-24T15:50:10.570Z,5.10
2019-02-24T15:52:39.916Z,4.83
2019-02-24T15:55:09.121Z,4.53
2019-02-24T15:57:38.195Z,3.80
2019-02-24T16:00:09.375Z,6.13
2019-02-24T16:02:38.696Z,4.00
2019-02-24T16:05:08.439Z,4.10
2019-02-24T16:07:37.516Z,3.90
2019-02-24T16:10:07.978Z,4.43
2019-02-24T16:12:37.239Z,4.10
2019-02-24T16:15:08.649Z,4.47
2019-02-24T16:17:37.874Z,4.17
2019-02-24T16:20:11.000Z,4.20
2019-02-24T16:22:40.145Z,4.53
2019-02-24T16:25:09.394Z,5.10
2019-02-24T16:27:38.397Z,4.63
2019-02-24T16:30:09.314Z,5.60
2019-02-24T16:32:38.467Z,7.57
2019-02-24T16:35:09.833Z,6.67
2019-02-24T16:37:39.157Z,6.50
2019-02-24T16:40:11.279Z,5.50
2019-02-24T16:42:40.302Z,5.23
2019-02-24T16:45:10.794Z,5.20
2019-02-24T16:47:40.048Z,5.17
2019-02-24T16:50:10.927Z,4.90
2019-02-24T16:52:39.973Z,5.53
2019-02-24T16:55:10.239Z,5.50
2019-02-24T16:57:39.640Z,6.43
2019-02-24T17:00:11.515Z,5.30
2019-02-24T17:02:40.567Z,5.47
2019-02-24T17:05:09.607Z,5.93
2019-02-24T17:07:38.598Z,5.87
2019-02-24T17:10:08.300Z,6.50
2019-02-24T17:12:37.493Z,6.03
2019-02-24T17:15:09.096Z,6.80
2019-02-24T17:17:38.295Z,7.47
2019-02-24T17:20:09.941Z,7.83
2019-02-24T17:22:39.204Z,6.80
2019-02-24T17:25:08.344Z,7.10
2019-02-24T17:27:37.447Z,8.27
2019-02-24T17:30:07.614Z,8.20
2019-02-24T17:32:36.725Z,7.63
2019-02-24T17:35:05.874Z,7.37
2019-02-24T17:37:34.922Z,7.60
2019-02-24T17:40:04.459Z,7.70
2019-02-24T17:42:33.675Z,6.80
2019-02-24T17:45:02.695Z,9.33
2019-02-24T17:47:31.738Z,8.97
2019-02-24T17:50:00.799Z,8.40
2019-02-24T17:52:29.883Z,9.03
2019-02-24T17:54:58.997Z,9.37
2019-02-24T17:57:28.591Z,8.03
2019-02-24T17:59:57.595Z,9.87
2019-02-24T18:02:26.882Z,10.63
2019-02-24T18:04:55.989Z,9.37
2019-02-24T18:07:24.964Z,10.50
2019-02-24T18:09:54.289Z,10.70
2019-02-24T18:12:23.332Z,11.07
2019-02-24T18:14:52.834Z,9.77
2019-02-24T18:17:21.896Z,10.13
2019-02-24T18:19:51.095Z,9.83
2019-02-24T18:22:20.264Z,11.03
2019-02-24T18:24:49.459Z,10.90
2019-02-24T18:27:18.586Z,9.83
2019-02-24T18:29:47.585Z,8.77
2019-02-24T18:32:16.824Z,9.33
2019-02-24T18:34:45.835Z,9.67
2019-02-24T18:37:14.981Z,10.53
2019-02-24T18:39:44.010Z,10.30
2019-02-24T18:42:13.102Z,9.90
2019-02-24T18:44:42.478Z,10.33
2019-02-24T18:47:11.681Z,9.67
2019-02-24T18:49:40.703Z,10.00
2019-02-24T18:52:09.866Z,11.83
2019-02-24T18:54:39.116Z,9.10
2019-02-24T18:57:08.386Z,10.60
2019-02-24T18:59:37.465Z,12.80
2019-02-24T19:02:06.434Z,11.10
2019-02-24T19:04:35.765Z,12.00
2019-02-24T19:07:10.218Z,12.33
2019-02-24T19:09:39.316Z,11.57
2019-02-24T19:12:08.475Z,12.60
2019-02-24T19:14:37.479Z,12.30
2019-02-24T19:17:06.681Z,12.77
2019-02-24T19:19:36.788Z,11.57
2019-02-24T19:22:07.257Z,12.37
2019-02-24T19:24:34.946Z,12.53
2019-02-24T19:27:04.024Z,12.23
2019-02-24T19:29:33.098Z,12.80
2019-02-24T19:32:02.108Z,12.30
2019-02-24T19:34:31.128Z,12.07
2019-02-24T19:37:00.190Z,12.80
2019-02-24T19:39:29.932Z,12.03
2019-02-24T19:41:59.104Z,11.47
2019-02-24T19:44:28.174Z,11.97
2019-02-24T19:46:57.123Z,11.80
2019-02-24T19:49:32.782Z,11.70
2019-02-24T19:52:01.802Z,10.90
2019-02-24T19:54:30.802Z,10.53
2019-02-24T19:56:59.939Z,10.83
2019-02-24T19:59:28.915Z,11.50
2019-02-24T20:01:57.862Z,12.13
2019-02-24T20:04:26.839Z,11.73
2019-02-24T20:06:55.851Z,11.53
2019-02-24T20:09:24.913Z,12.83
2019-02-24T20:11:54.501Z,15.10
2019-02-24T20:14:23.620Z,13.90
2019-02-24T20:16:52.617Z,13.57
2019-02-24T20:19:21.659Z,12.50
2019-02-24T20:21:50.702Z,10.73
2019-02-24T20:24:19.768Z,13.17
2019-02-24T20:26:48.784Z,12.87
2019-02-24T20:29:17.788Z,13.07
2019-02-24T20:31:47.024Z,12.63
2019-02-24T20:34:25.022Z,12.67
2019-02-24T20:36:45.655Z,12.97
2019-02-24T20:39:17.128Z,12.97
2019-02-24T20:41:47.300Z,11.83
2019-02-24T20:44:16.464Z,12.27
2019-02-24T20:46:46.016Z,11.87
2019-02-24T20:49:15.373Z,12.07
2019-02-24T20:51:45.166Z,11.77
2019-02-24T20:54:14.274Z,11.93
2019-02-24T20:56:43.357Z,12.10
2019-02-24T20:59:12.482Z,14.60
2019-02-24T21:01:41.642Z,12.70
2019-02-24T21:04:11.366Z,11.17
2019-02-24T21:06:41.447Z,11.30
2019-02-24T21:09:14.983Z,12.17
2019-02-24T21:11:46.293Z,13.27
2019-02-24T21:14:15.846Z,11.77
2019-02-24T21:16:46.775Z,13.43
2019-02-24T21:19:17.180Z,12.47
2019-02-24T21:21:48.084Z,12.63
2019-02-24T21:24:18.365Z,13.07
2019-02-24T21:26:48.874Z,13.83
2019-02-24T21:29:20.389Z,12.83
2019-02-24T21:31:52.016Z,12.17
2019-02-24T21:34:23.459Z,12.70
2019-02-24T21:36:52.558Z,12.97
2019-02-24T21:39:21.593Z,13.00
2019-02-24T21:41:51.306Z,13.97
2019-02-24T21:44:20.502Z,12.03
2019-02-24T21:46:49.702Z,14.27
2019-02-24T21:49:18.826Z,15.00
2019-02-24T21:51:47.859Z,13.27
2019-02-24T21:54:16.868Z,13.37
2019-02-24T21:56:45.896Z,13.37
2019-02-24T21:59:15.312Z,13.50
2019-02-24T22:01:45.047Z,13.90
2019-02-24T22:04:14.164Z,13.93
2019-02-24T22:06:43.252Z,14.03
2019-02-24T22:09:12.537Z,14.27
2019-02-24T22:11:41.563Z,14.27
2019-02-24T22:14:17.424Z,13.93
2019-02-24T22:16:46.400Z,13.23
2019-02-24T22:19:16.212Z,13.33
2019-02-24T22:21:48.301Z,13.30
2019-02-24T22:24:17.362Z,14.43
2019-02-24T22:26:46.502Z,13.77
2019-02-24T22:29:15.463Z,13.30
2019-02-24T22:31:44.383Z,14.47
2019-02-24T22:34:13.351Z,13.57
2019-02-24T22:36:42.313Z,13.13
2019-02-24T22:39:11.352Z,15.37
2019-02-24T22:41:40.404Z,15.77
2019-02-24T22:44:09.338Z,15.63
2019-02-24T22:46:38.273Z,14.87
2019-02-24T22:49:07.267Z,14.63
2019-02-24T22:51:36.294Z,15.90
2019-02-24T22:54:05.486Z,15.20
2019-02-24T22:56:34.471Z,13.83
2019-02-24T22:59:03.516Z,12.80
2019-02-24T23:01:36.365Z,12.90
2019-02-24T23:04:05.445Z,12.17
2019-02-24T23:06:34.457Z,13.13
2019-02-24T23:09:03.690Z,12.10
2019-02-24T23:11:32.604Z,12.97
2019-02-24T23:14:01.710Z,12.30
2019-02-24T23:16:30.685Z,12.57
2019-02-24T23:19:02.366Z,13.40
2019-02-24T23:21:31.368Z,13.43
2019-02-24T23:24:00.288Z,13.83
2019-02-24T23:26:29.234Z,13.33
2019-02-24T23:28:58.410Z,13.20
2019-02-24T23:31:27.319Z,13.47
2019-02-24T23:33:56.232Z,13.53
2019-02-24T23:36:25.545Z,13.50
2019-02-24T23:38:54.812Z,12.53
2019-02-24T23:41:23.846Z,13.60
2019-02-24T23:43:52.908Z,13.87
2019-02-24T23:46:21.847Z,12.57
2019-02-24T23:48:50.836Z,13.47
2019-02-24T23:51:19.848Z,14.57
2019-02-24T23:53:49.007Z,13.70
2019-02-24T23:56:17.951Z,14.53
2019-02-24T23:58:46.966Z,13.53
